createdAt,value
2018-07-16T00:00:31.155Z,22.20
2018-07-16T00:02:59.653Z,22.20
2018-07-16T00:05:28.098Z,22.10
2018-07-16T00:07:56.776Z,22.10
2018-07-16T00:10:25.571Z,22.00
2018-07-16T00:12:54.158Z,22.00
2018-07-16T00:15:22.492Z,21.90
2018-07-16T00:17:50.940Z,21.80
2018-07-16T00:21:22.340Z,21.80
2018-07-16T00:23:52.468Z,21.70
2018-07-16T00:26:20.777Z,21.80
2018-07-16T00:28:49.301Z,21.60
2018-07-16T00:31:18.269Z,21.60
2018-07-16T00:33:46.615Z,21.60
2018-07-16T00:36:14.934Z,21.60
2018-07-16T00:38:43.816Z,21.60
2018-07-16T00:41:12.798Z,21.50
2018-07-16T00:43:41.901Z,21.50
2018-07-16T00:46:10.237Z,21.50
2018-07-16T00:48:38.630Z,21.40
2018-07-16T00:51:07.179Z,21.40
2018-07-16T00:53:35.669Z,21.40
2018-07-16T00:56:04.071Z,21.30
2018-07-16T00:58:32.612Z,21.30
2018-07-16T01:01:01.677Z,21.30
2018-07-16T01:03:30.112Z,21.20
2018-07-16T01:05:58.463Z,21.10
2018-07-16T01:08:26.823Z,21.10
2018-07-16T01:10:55.937Z,21.00
2018-07-16T01:13:24.408Z,21.00
2018-07-16T01:15:52.718Z,21.00
2018-07-16T01:18:21.250Z,21.00
2018-07-16T01:20:49.591Z,21.00
2018-07-16T01:23:18.376Z,21.00
2018-07-16T01:25:46.791Z,21.00
2018-07-16T01:28:15.150Z,20.90
2018-07-16T01:30:43.874Z,20.90
2018-07-16T01:33:12.400Z,20.90
2018-07-16T01:35:40.784Z,20.90
2018-07-16T01:38:09.267Z,20.90
2018-07-16T01:40:38.193Z,20.80
2018-07-16T01:43:07.656Z,20.80
2018-07-16T01:45:36.133Z,20.80
2018-07-16T01:48:04.619Z,20.70
2018-07-16T01:50:33.023Z,20.70
2018-07-16T01:53:01.418Z,20.70
2018-07-16T01:55:29.863Z,20.70
2018-07-16T01:57:58.337Z,20.60
2018-07-16T02:00:27.757Z,20.60
2018-07-16T02:02:56.658Z,20.60
2018-07-16T02:05:25.039Z,20.50
2018-07-16T02:07:53.361Z,20.50
2018-07-16T02:10:22.382Z,20.40
2018-07-16T02:12:50.727Z,20.40
2018-07-16T02:17:47.455Z,20.30
2018-07-16T02:20:15.848Z,20.30
2018-07-16T02:22:44.340Z,20.30
2018-07-16T02:25:12.763Z,20.30
2018-07-16T02:27:41.694Z,20.20
2018-07-16T02:30:10.581Z,20.20
2018-07-16T02:32:39.111Z,20.20
2018-07-16T02:35:07.614Z,20.10
2018-07-16T02:37:35.970Z,20.10
2018-07-16T02:40:04.687Z,20.10
2018-07-16T02:42:34.731Z,20.10
2018-07-16T02:45:03.769Z,20.10
2018-07-16T02:47:32.311Z,20.10
2018-07-16T02:50:01.370Z,20.10
2018-07-16T02:52:30.072Z,20.00
2018-07-16T02:55:01.386Z,20.00
2018-07-16T02:57:30.409Z,20.00
2018-07-16T03:00:00.539Z,20.00
2018-07-16T03:02:29.403Z,20.00
2018-07-16T03:04:57.943Z,20.00
2018-07-16T03:07:26.309Z,19.90
2018-07-16T03:09:55.682Z,19.90
2018-07-16T03:12:24.149Z,19.90
2018-07-16T03:14:52.560Z,19.90
2018-07-16T03:17:20.880Z,19.80
2018-07-16T03:19:49.380Z,19.80
2018-07-16T03:22:17.841Z,19.80
2018-07-16T03:24:46.507Z,19.80
2018-07-16T03:27:14.829Z,19.80
2018-07-16T03:29:43.696Z,19.70
2018-07-16T03:32:12.123Z,19.70
2018-07-16T03:34:40.577Z,19.70
2018-07-16T03:37:08.915Z,19.60
2018-07-16T03:39:37.475Z,19.60
2018-07-16T03:42:06.558Z,19.60
2018-07-16T03:44:34.896Z,19.60
2018-07-16T03:47:03.316Z,19.60
2018-07-16T03:49:31.665Z,19.60
2018-07-16T03:52:00.773Z,19.50
2018-07-16T03:54:29.259Z,19.50
2018-07-16T03:56:58.137Z,19.50
2018-07-16T03:59:26.506Z,19.50
2018-07-16T04:01:55.389Z,19.50
2018-07-16T04:04:23.708Z,19.40
2018-07-16T04:06:52.060Z,19.40
2018-07-16T04:09:21.147Z,19.40
2018-07-16T04:11:49.640Z,19.40
2018-07-16T04:14:18.536Z,19.40
2018-07-16T04:16:46.896Z,19.40
2018-07-16T04:19:15.253Z,19.40
2018-07-16T04:21:43.747Z,19.40
2018-07-16T04:24:12.085Z,19.40
2018-07-16T04:26:40.434Z,19.40
2018-07-16T04:29:09.061Z,19.40
2018-07-16T04:31:38.519Z,19.40
2018-07-16T04:34:06.862Z,19.40
2018-07-16T04:36:35.330Z,19.40
2018-07-16T04:39:04.831Z,19.50
2018-07-16T04:41:34.542Z,19.50
2018-07-16T04:44:03.576Z,19.50
2018-07-16T04:46:31.987Z,19.50
2018-07-16T04:49:00.388Z,19.60
2018-07-16T04:51:28.911Z,19.60
2018-07-16T04:53:57.379Z,19.70
2018-07-16T04:56:25.685Z,19.70
2018-07-16T04:58:54.046Z,19.70
2018-07-16T05:01:23.033Z,19.80
2018-07-16T05:03:52.219Z,19.80
2018-07-16T05:06:20.609Z,19.90
2018-07-16T05:08:49.410Z,19.90
2018-07-16T05:11:18.777Z,19.90
2018-07-16T05:13:48.474Z,20.00
2018-07-16T05:16:20.020Z,20.10
2018-07-16T05:18:48.786Z,20.10
2018-07-16T05:21:18.019Z,20.20
2018-07-16T05:23:46.856Z,20.20
2018-07-16T05:26:15.386Z,20.30
2018-07-16T05:28:44.176Z,20.40
2018-07-16T05:31:12.952Z,20.50
2018-07-16T05:33:41.375Z,20.50
2018-07-16T05:36:09.869Z,20.60
2018-07-16T05:38:38.406Z,20.70
2018-07-16T05:41:07.723Z,20.70
2018-07-16T05:43:36.613Z,20.80
2018-07-16T05:46:05.006Z,20.90
2018-07-16T05:48:33.353Z,20.90
2018-07-16T05:51:02.095Z,21.00
2018-07-16T05:53:37.038Z,21.10
2018-07-16T05:56:05.494Z,21.10
2018-07-16T05:58:37.214Z,21.20
2018-07-16T06:01:06.210Z,21.30
2018-07-16T06:03:35.896Z,21.30
2018-07-16T06:06:04.319Z,21.40
2018-07-16T06:08:34.291Z,21.50
2018-07-16T06:11:03.375Z,21.50
2018-07-16T06:13:31.726Z,21.60
2018-07-16T06:16:00.058Z,21.70
2018-07-16T06:18:28.603Z,21.70
2018-07-16T06:20:56.962Z,21.80
2018-07-16T06:23:25.361Z,21.90
2018-07-16T06:25:53.735Z,21.90
2018-07-16T06:28:22.359Z,22.00
2018-07-16T06:30:51.095Z,22.00
2018-07-16T06:33:19.456Z,22.10
2018-07-16T06:35:47.888Z,22.20
2018-07-16T06:38:16.220Z,22.20
2018-07-16T06:40:44.989Z,22.30
2018-07-16T06:43:13.983Z,22.30
2018-07-16T06:45:42.444Z,22.40
2018-07-16T06:48:10.859Z,22.50
2018-07-16T06:50:39.436Z,22.60
2018-07-16T06:53:07.956Z,22.60
2018-07-16T06:55:36.276Z,22.70
2018-07-16T06:58:04.740Z,22.80
2018-07-16T07:00:34.818Z,22.90
2018-07-16T07:03:03.891Z,23.00
2018-07-16T07:05:32.219Z,23.00
2018-07-16T07:08:00.562Z,23.10
2018-07-16T07:10:29.414Z,23.20
2018-07-16T07:12:57.775Z,23.20
2018-07-16T07:15:26.152Z,23.30
2018-07-16T07:17:55.067Z,23.40
2018-07-16T07:20:23.605Z,23.40
2018-07-16T07:22:53.028Z,23.50
2018-07-16T07:25:21.530Z,23.50
2018-07-16T07:27:49.905Z,23.60
2018-07-16T07:30:18.935Z,23.60
2018-07-16T07:32:47.770Z,23.70
2018-07-16T07:35:16.281Z,23.70
2018-07-16T07:37:44.568Z,23.80
2018-07-16T07:40:12.931Z,23.80
2018-07-16T07:42:41.997Z,23.90
2018-07-16T07:45:10.439Z,24.00
2018-07-16T07:47:39.072Z,24.00
2018-07-16T07:50:07.432Z,24.00
2018-07-16T07:52:35.789Z,24.00
2018-07-16T07:57:32.847Z,24.10
2018-07-16T08:00:01.923Z,24.20
2018-07-16T08:02:30.311Z,24.20
2018-07-16T08:04:59.203Z,24.30
2018-07-16T08:07:27.727Z,24.30
2018-07-16T08:09:56.700Z,24.40
2018-07-16T08:12:25.198Z,24.40
2018-07-16T08:14:53.677Z,24.40
2018-07-16T08:17:22.573Z,24.50
2018-07-16T08:19:51.399Z,24.50
2018-07-16T08:22:19.816Z,24.60
2018-07-16T08:24:48.586Z,24.60
2018-07-16T08:27:17.190Z,24.60
2018-07-16T08:29:50.299Z,24.70
2018-07-16T08:32:18.723Z,24.70
2018-07-16T08:34:47.252Z,24.80
2018-07-16T08:37:15.742Z,24.80
2018-07-16T08:39:44.993Z,24.90
2018-07-16T08:42:13.998Z,24.90
2018-07-16T08:44:43.331Z,25.00
2018-07-16T08:47:11.918Z,25.10
2018-07-16T08:49:40.437Z,25.10
2018-07-16T08:52:08.890Z,25.20
2018-07-16T08:54:37.300Z,25.30
2018-07-16T08:57:05.665Z,25.40
2018-07-16T08:59:34.321Z,25.40
2018-07-16T09:02:03.497Z,25.50
2018-07-16T09:04:32.626Z,25.60
2018-07-16T09:07:01.148Z,25.60
2018-07-16T09:09:29.877Z,25.70
2018-07-16T09:11:58.271Z,25.70
2018-07-16T09:14:26.701Z,25.80
2018-07-16T09:16:55.579Z,25.90
2018-07-16T09:19:24.294Z,25.90
2018-07-16T09:24:20.857Z,26.10
2018-07-16T09:26:49.408Z,26.10
2018-07-16T09:29:18.573Z,26.20
2018-07-16T09:31:46.985Z,26.30
2018-07-16T09:34:15.580Z,26.40
2018-07-16T09:36:44.101Z,26.50
2018-07-16T09:39:12.457Z,26.60
2018-07-16T09:41:41.390Z,26.70
2018-07-16T09:44:10.230Z,26.70
2018-07-16T09:46:38.743Z,26.80
2018-07-16T09:49:07.243Z,26.90
2018-07-16T09:51:35.664Z,27.00
2018-07-16T09:54:04.023Z,27.10
2018-07-16T09:59:01.048Z,27.20
2018-07-16T10:01:35.025Z,27.30
2018-07-16T10:04:04.540Z,27.30
2018-07-16T10:06:34.925Z,27.40
2018-07-16T10:09:05.202Z,27.50
2018-07-16T10:11:33.746Z,27.60
2018-07-16T10:14:02.378Z,27.70
2018-07-16T10:16:31.641Z,27.80
2018-07-16T10:19:00.420Z,27.80
2018-07-16T10:21:28.866Z,27.90
2018-07-16T10:23:58.225Z,28.00
2018-07-16T10:26:27.394Z,28.00
2018-07-16T10:28:56.111Z,28.20
2018-07-16T10:31:25.087Z,28.20
2018-07-16T10:33:54.174Z,28.30
2018-07-16T10:36:22.808Z,28.40
2018-07-16T10:38:51.223Z,28.60
2018-07-16T10:41:19.641Z,28.60
2018-07-16T10:46:16.899Z,28.90
2018-07-16T10:48:45.299Z,29.00
2018-07-16T10:51:13.684Z,29.10
2018-07-16T10:53:42.125Z,29.20
2018-07-16T10:56:10.718Z,29.30
2018-07-16T10:58:39.753Z,29.40
2018-07-16T11:01:09.011Z,29.50
2018-07-16T11:03:37.958Z,29.60
2018-07-16T11:06:12.561Z,29.60
2018-07-16T11:08:42.763Z,29.70
2018-07-16T11:11:11.135Z,29.80
2018-07-16T11:13:40.806Z,29.90
2018-07-16T11:16:09.228Z,30.00
2018-07-16T11:18:37.653Z,30.10
2018-07-16T11:21:06.235Z,30.20
2018-07-16T11:23:34.713Z,30.30
2018-07-16T11:26:03.199Z,30.50
2018-07-16T11:28:32.007Z,30.60
2018-07-16T11:31:01.025Z,30.70
2018-07-16T11:33:29.426Z,30.70
2018-07-16T11:35:58.155Z,30.80
2018-07-16T11:38:26.491Z,31.00
2018-07-16T11:40:56.108Z,31.10
2018-07-16T11:43:25.006Z,31.20
2018-07-16T11:45:53.390Z,31.20
2018-07-16T11:48:21.766Z,31.30
2018-07-16T11:50:50.145Z,31.50
2018-07-16T11:53:18.621Z,31.60
2018-07-16T11:55:47.239Z,31.80
2018-07-16T11:58:15.842Z,31.90
2018-07-16T12:00:44.637Z,32.00
2018-07-16T12:03:13.030Z,32.10
2018-07-16T12:05:41.923Z,32.20
2018-07-16T12:08:10.295Z,32.30
2018-07-16T12:10:39.222Z,32.40
2018-07-16T12:13:07.604Z,32.50
2018-07-16T12:15:36.065Z,32.60
2018-07-16T12:18:04.677Z,32.60
2018-07-16T12:23:01.187Z,32.80
2018-07-16T12:25:29.519Z,32.90
2018-07-16T12:27:57.981Z,32.90
2018-07-16T12:30:26.959Z,33.10
2018-07-16T12:32:55.463Z,33.10
2018-07-16T12:35:24.180Z,33.30
2018-07-16T12:37:52.622Z,33.30
2018-07-16T12:40:21.041Z,33.50
2018-07-16T12:42:49.928Z,33.60
2018-07-16T12:45:18.820Z,33.60
2018-07-16T12:47:47.326Z,33.60
2018-07-16T12:50:15.687Z,33.60
2018-07-16T12:52:44.028Z,33.60
2018-07-16T12:57:41.885Z,33.80
2018-07-16T13:00:10.960Z,33.90
2018-07-16T13:07:36.296Z,34.20
2018-07-16T13:10:05.121Z,34.30
2018-07-16T13:12:34.213Z,34.40
2018-07-16T13:15:02.643Z,34.40
2018-07-16T13:17:32.175Z,34.50
2018-07-16T13:20:02.126Z,34.70
2018-07-16T13:22:30.876Z,34.70
2018-07-16T13:25:01.625Z,34.80
2018-07-16T13:27:30.054Z,34.80
2018-07-16T13:29:59.467Z,34.90
2018-07-16T13:32:27.784Z,34.90
2018-07-16T13:34:57.745Z,35.00
2018-07-16T13:37:26.073Z,35.00
2018-07-16T13:39:54.979Z,35.00
2018-07-16T13:42:23.843Z,35.00
2018-07-16T13:44:52.704Z,35.00
2018-07-16T13:47:22.373Z,35.00
2018-07-16T13:49:50.742Z,35.10
2018-07-16T13:52:19.161Z,35.00
2018-07-16T13:54:47.565Z,35.00
2018-07-16T13:57:15.878Z,34.90
2018-07-16T13:59:44.286Z,35.00
2018-07-16T14:02:13.065Z,35.00
2018-07-16T14:04:41.484Z,35.00
2018-07-16T14:07:10.210Z,35.00
2018-07-16T14:09:38.942Z,35.10
2018-07-16T14:12:07.385Z,35.10
2018-07-16T14:14:35.897Z,35.10
2018-07-16T14:17:04.278Z,35.10
2018-07-16T14:19:32.748Z,35.20
2018-07-16T14:22:01.090Z,35.20
2018-07-16T14:24:29.400Z,35.30
2018-07-16T14:26:57.743Z,35.30
2018-07-16T14:29:27.009Z,35.30
2018-07-16T14:31:55.403Z,35.40
2018-07-16T14:34:23.758Z,35.40
2018-07-16T14:36:52.154Z,35.50
2018-07-16T14:39:20.698Z,35.50
2018-07-16T14:41:49.100Z,35.50
2018-07-16T14:44:18.021Z,35.50
2018-07-16T14:46:47.319Z,35.40
2018-07-16T14:49:15.717Z,35.40
2018-07-16T14:51:44.077Z,35.30
2018-07-16T14:54:12.391Z,35.30
2018-07-16T14:56:40.723Z,35.30
2018-07-16T14:59:09.764Z,35.30
2018-07-16T15:01:38.963Z,35.20
2018-07-16T15:04:07.444Z,35.20
2018-07-16T15:06:36.367Z,35.30
2018-07-16T15:09:07.665Z,35.30
2018-07-16T15:11:36.103Z,35.30
2018-07-16T15:14:04.655Z,35.30
2018-07-16T15:16:32.963Z,35.20
2018-07-16T15:19:01.523Z,35.20
2018-07-16T15:21:30.258Z,35.10
2018-07-16T15:23:58.963Z,35.10
2018-07-16T15:26:27.605Z,35.10
2018-07-16T15:28:56.586Z,35.10
2018-07-16T15:31:27.417Z,35.00
2018-07-16T15:33:55.967Z,34.90
2018-07-16T15:36:27.931Z,34.80
2018-07-16T15:38:56.331Z,34.70
2018-07-16T15:41:24.935Z,34.60
2018-07-16T15:43:53.776Z,34.60
2018-07-16T15:46:22.196Z,34.60
2018-07-16T15:48:50.618Z,34.60
2018-07-16T15:51:19.395Z,34.60
2018-07-16T15:53:47.918Z,34.60
2018-07-16T15:56:16.351Z,34.60
2018-07-16T15:58:44.843Z,34.60
2018-07-16T16:01:13.661Z,34.60
2018-07-16T16:03:42.159Z,34.60
2018-07-16T16:06:11.788Z,34.60
2018-07-16T16:08:40.868Z,34.40
2018-07-16T16:11:09.762Z,34.40
2018-07-16T16:13:38.088Z,34.40
2018-07-16T16:16:07.032Z,34.40
2018-07-16T16:18:35.697Z,34.40
2018-07-16T16:21:04.175Z,34.40
2018-07-16T16:23:32.610Z,34.30
2018-07-16T16:26:00.997Z,34.20
2018-07-16T16:30:58.321Z,34.10
2018-07-16T16:33:26.716Z,34.10
2018-07-16T16:35:55.181Z,34.00
2018-07-16T16:38:23.624Z,33.90
2018-07-16T16:40:52.680Z,33.90
2018-07-16T16:43:22.313Z,33.80
2018-07-16T16:45:50.676Z,33.80
2018-07-16T16:48:21.074Z,33.80
2018-07-16T16:50:49.483Z,33.70
2018-07-16T16:53:18.703Z,33.60
2018-07-16T16:55:47.755Z,33.50
2018-07-16T16:58:16.774Z,33.40
2018-07-16T17:00:47.273Z,33.30
2018-07-16T17:03:17.302Z,33.30
2018-07-16T17:05:45.673Z,33.20
2018-07-16T17:08:15.585Z,33.20
2018-07-16T17:10:44.460Z,33.10
2018-07-16T17:13:12.954Z,33.10
2018-07-16T17:15:41.347Z,33.10
2018-07-16T17:18:10.560Z,33.00
2018-07-16T17:20:39.432Z,33.00
2018-07-16T17:23:07.994Z,33.00
2018-07-16T17:25:38.142Z,33.00
2018-07-16T17:28:06.504Z,32.90
2018-07-16T17:30:35.794Z,32.80
2018-07-16T17:33:04.353Z,32.80
2018-07-16T17:35:32.966Z,32.70
2018-07-16T17:38:01.311Z,32.60
2018-07-16T17:40:30.066Z,32.60
2018-07-16T17:42:59.252Z,32.50
2018-07-16T17:45:27.588Z,32.40
2018-07-16T17:47:56.431Z,32.30
2018-07-16T17:50:25.062Z,32.20
2018-07-16T17:52:53.386Z,32.10
2018-07-16T17:55:21.831Z,32.00
2018-07-16T17:57:50.733Z,31.90
2018-07-16T18:00:19.785Z,31.80
2018-07-16T18:05:16.922Z,31.60
2018-07-16T18:07:45.737Z,31.60
2018-07-16T18:10:14.481Z,31.50
2018-07-16T18:12:43.021Z,31.40
2018-07-16T18:15:13.279Z,31.40
2018-07-16T18:17:43.352Z,31.30
2018-07-16T18:20:11.978Z,31.30
2018-07-16T18:22:40.381Z,31.30
2018-07-16T18:25:11.266Z,31.20
2018-07-16T18:27:40.111Z,31.10
2018-07-16T18:30:09.420Z,31.10
2018-07-16T18:32:38.035Z,31.10
2018-07-16T18:35:06.758Z,31.00
2018-07-16T18:37:35.265Z,31.00
2018-07-16T18:42:33.205Z,30.90
2018-07-16T18:45:02.305Z,30.80
2018-07-16T18:47:31.702Z,30.80
2018-07-16T18:50:00.138Z,30.70
2018-07-16T18:52:28.638Z,30.60
2018-07-16T18:54:57.107Z,30.60
2018-07-16T18:57:25.511Z,30.50
2018-07-16T18:59:54.332Z,30.50
2018-07-16T19:02:23.599Z,30.40
2018-07-16T19:04:52.021Z,30.40
2018-07-16T19:07:22.542Z,30.30
2018-07-16T19:09:52.394Z,30.20
2018-07-16T19:12:21.826Z,30.20
2018-07-16T19:14:50.493Z,30.10
2018-07-16T19:17:19.197Z,30.00
2018-07-16T19:19:47.940Z,30.00
2018-07-16T19:22:16.950Z,29.90
2018-07-16T19:24:45.514Z,29.80
2018-07-16T19:27:17.469Z,29.80
2018-07-16T19:29:46.889Z,29.70
2018-07-16T19:32:15.571Z,29.70
2018-07-16T19:34:44.027Z,29.60
2018-07-16T19:39:41.291Z,29.40
2018-07-16T19:42:10.312Z,29.30
2018-07-16T19:44:38.827Z,29.30
2018-07-16T19:47:08.046Z,29.20
2018-07-16T19:49:36.462Z,29.10
2018-07-16T19:52:04.831Z,29.00
2018-07-16T19:54:33.423Z,28.90
2018-07-16T19:57:01.852Z,28.90
2018-07-16T19:59:30.717Z,28.80
2018-07-16T20:01:59.681Z,28.70
2018-07-16T20:04:28.275Z,28.70
2018-07-16T20:06:57.594Z,28.60
2018-07-16T20:09:27.350Z,28.50
2018-07-16T20:11:55.710Z,28.40
2018-07-16T20:14:24.572Z,28.30
2018-07-16T20:16:53.044Z,28.30
2018-07-16T20:19:21.863Z,28.20
2018-07-16T20:21:50.681Z,28.20
2018-07-16T20:24:19.093Z,28.10
2018-07-16T20:26:48.315Z,28.10
2018-07-16T20:29:17.605Z,28.00
2018-07-16T20:31:46.215Z,28.00
2018-07-16T20:34:15.309Z,27.90
2018-07-16T20:36:45.100Z,27.90
2018-07-16T20:39:14.507Z,27.80
2018-07-16T20:41:42.983Z,27.70
2018-07-16T20:44:14.101Z,27.70
2018-07-16T20:46:42.694Z,27.60
2018-07-16T20:49:11.926Z,27.50
2018-07-16T20:51:40.425Z,27.40
2018-07-16T20:54:09.069Z,27.30
2018-07-16T20:56:37.471Z,27.20
2018-07-16T20:59:06.750Z,27.10
2018-07-16T21:01:35.821Z,27.10
2018-07-16T21:04:04.352Z,27.00
2018-07-16T21:06:32.704Z,27.00
2018-07-16T21:09:02.298Z,26.90
2018-07-16T21:11:31.273Z,26.90
2018-07-16T21:14:00.344Z,26.80
2018-07-16T21:16:28.876Z,26.80
2018-07-16T21:18:57.982Z,26.80
2018-07-16T21:21:26.372Z,26.70
2018-07-16T21:23:55.424Z,26.70
2018-07-16T21:26:24.548Z,26.70
2018-07-16T21:28:52.989Z,26.70
2018-07-16T21:31:22.022Z,26.60
2018-07-16T21:33:50.586Z,26.60
2018-07-16T21:36:19.749Z,26.60
2018-07-16T21:38:48.141Z,26.60
2018-07-16T21:41:16.494Z,26.60
2018-07-16T21:43:45.263Z,26.50
2018-07-16T21:46:13.715Z,26.50
2018-07-16T21:48:42.569Z,26.40
2018-07-16T21:53:39.383Z,26.30
2018-07-16T21:56:07.851Z,26.20
2018-07-16T21:58:36.213Z,26.20
2018-07-16T22:01:06.165Z,26.20
2018-07-16T22:06:03.804Z,26.00
2018-07-16T22:08:32.712Z,26.00
2018-07-16T22:11:02.547Z,25.90
2018-07-16T22:13:31.035Z,25.90
2018-07-16T22:16:02.219Z,25.90
2018-07-16T22:18:30.613Z,25.80
2018-07-16T22:21:00.656Z,25.80
2018-07-16T22:23:28.988Z,25.70
2018-07-16T22:25:58.494Z,25.70
2018-07-16T22:28:26.977Z,25.60
2018-07-16T22:30:55.917Z,25.60
2018-07-16T22:33:24.274Z,25.50
2018-07-16T22:35:53.140Z,25.50
2018-07-16T22:38:21.477Z,25.40
2018-07-16T22:40:49.896Z,25.30
2018-07-16T22:43:18.985Z,25.30
2018-07-16T22:45:47.374Z,25.30
2018-07-16T22:48:15.745Z,25.20
2018-07-16T22:50:44.816Z,25.10
2018-07-16T22:53:13.321Z,25.00
2018-07-16T22:55:41.806Z,25.00
2018-07-16T22:58:10.412Z,25.00
2018-07-16T23:00:39.508Z,24.90
2018-07-16T23:03:07.885Z,24.90
2018-07-16T23:05:36.222Z,24.80
2018-07-16T23:08:05.470Z,24.80
2018-07-16T23:10:34.350Z,24.80
2018-07-16T23:13:03.760Z,24.70
2018-07-16T23:15:32.301Z,24.70
2018-07-16T23:18:00.706Z,24.70
2018-07-16T23:20:29.119Z,24.60
2018-07-16T23:22:57.544Z,24.60
2018-07-16T23:25:26.545Z,24.60
2018-07-16T23:27:55.582Z,24.60
2018-07-16T23:30:24.755Z,24.50
2018-07-16T23:32:53.120Z,24.40
2018-07-16T23:35:22.177Z,24.40
2018-07-16T23:37:51.433Z,24.40
2018-07-16T23:40:20.108Z,24.40
2018-07-16T23:42:49.310Z,24.30
2018-07-16T23:45:17.754Z,24.30
2018-07-16T23:47:49.489Z,24.30
2018-07-16T23:50:17.917Z,24.20
2018-07-16T23:52:46.219Z,24.20
2018-07-16T23:55:14.678Z,24.20
2018-07-16T23:57:44.811Z,24.10
